Time;durP1;ratioP1;P1;durP2;ratioP2;P2;SDS_P1;SDS_P2;PMS_P1;PMS_P2;Temp;Humidity;BMP_temperature;BMP_pressure;BME280_temperature;BME280_humidity;BME280_pressure;Samples;Min_cycle;Max_cycle;Signal;HPM_P1;HPM_P2
2021/12/13 15:11:38;;;;;;;;;;;10.50;67.10;;;;;;5044960;28;80139;-49
2021/12/13 15:59:29;;;;;;;;;;;10.50;68.00;;;;;;4409041;27;1399475;-54
2021/12/13 16:01:58;;;;;;;;;;;10.60;68.40;;;;;;5106302;27;80262;-54
2021/12/13 16:04:27;;;;;;;;;;;10.50;68.30;;;;;;5104307;27;82169;-45
2021/12/13 16:06:55;;;;;;;;;;;10.50;68.40;;;;;;5104329;27;82196;-53
2021/12/13 16:09:23;;;;;;;;;;;10.70;68.50;;;;;;5105876;27;80268;-47
2021/12/13 16:11:53;;;;;;;;;;;10.80;68.40;;;;;;5105725;27;82390;-44
2021/12/13 16:14:25;;;;;;;;;;;10.70;68.40;;;;;;5104636;27;83900;-44
2021/12/13 16:17:03;;;;;;;;;;;10.80;68.50;;;;;;5104163;27;80363;-49
2021/12/13 16:19:34;;;;;;;;;;;10.90;68.20;;;;;;5107953;27;83130;-45
2021/12/13 16:22:00;;;;;;;;;;;10.90;68.10;;;;;;5105540;27;80321;-48
2021/12/13 16:24:27;;;;;;;;;;;11.00;68.20;;;;;;5104783;27;80739;-48
2021/12/13 16:26:54;;;;;;;;;;;11.00;68.10;;;;;;5105297;27;82762;-47
2021/12/13 16:29:24;;;;;;;;;;;11.00;68.20;;;;;;5105741;27;80266;-46
2021/12/13 16:31:50;;;;;;;;;;;11.10;68.20;;;;;;5104541;27;82256;-45
2021/12/13 16:34:21;;;;;;;;;;;11.10;68.10;;;;;;5105112;27;82967;-46
2021/12/13 16:36:52;;;;;;;;;;;11.20;68.40;;;;;;5101144;27;80315;-43
2021/12/13 16:39:20;;;;;;;;;;;11.30;68.00;;;;;;5083892;27;82539;-50
2021/12/13 16:41:46;;;;;;;;;;;11.30;67.90;;;;;;5087019;27;81594;-47
2021/12/13 16:44:15;;;;;;;;;;;11.30;67.70;;;;;;5085038;27;84174;-44
2021/12/13 16:46:41;;;;;;;;;;;11.30;67.70;;;;;;5084774;27;82927;-46
2021/12/13 16:49:33;;;;;;;;;;;11.40;67.70;;;;;;5084716;27;80317;-45
2021/12/13 16:52:11;;;;;;;;;;;11.40;67.80;;;;;;5079711;27;82268;-40
2021/12/13 16:54:38;;;;;;;;;;;11.50;67.80;;;;;;5084879;27;82972;-47
2021/12/13 16:57:18;;;;;;;;;;;11.50;68.00;;;;;;5084555;27;80375;-49
2021/12/13 16:59:44;;;;;;;;;;;11.60;67.80;;;;;;5083592;27;82385;-63
2021/12/13 17:02:11;;;;;;;;;;;11.60;67.60;;;;;;5084314;27;83059;-47
2021/12/13 17:04:43;;;;;;;;;;;11.50;68.00;;;;;;5087251;27;80289;-43
2021/12/13 17:07:09;;;;;;;;;;;11.50;68.20;;;;;;5083664;27;83032;-45
2021/12/13 17:09:52;;;;;;;;;;;11.60;68.00;;;;;;5078315;27;80384;-43
2021/12/13 17:12:18;;;;;;;;;;;11.60;67.90;;;;;;5070759;27;82063;-46
2021/12/13 17:14:56;;;;;;;;;;;11.70;67.70;;;;;;5070700;27;82835;-45
2021/12/13 17:17:37;;;;;;;;;;;11.70;67.70;;;;;;5070666;27;80309;-46
2021/12/13 17:20:05;;;;;;;;;;;11.80;67.70;;;;;;5070597;27;82521;-43
2021/12/13 17:22:32;;;;;;;;;;;11.90;67.80;;;;;;5070184;27;83137;-41
2021/12/13 17:25:01;;;;;;;;;;;11.90;67.40;;;;;;5070515;27;80372;-44
2021/12/13 17:27:29;;;;;;;;;;;11.80;67.70;;;;;;5073041;27;82251;-44
2021/12/13 17:29:59;;;;;;;;;;;11.90;67.60;;;;;;5087887;27;80347;-45
2021/12/13 17:32:26;;;;;;;;;;;11.30;68.10;;;;;;5090766;27;82520;-53
2021/12/13 17:34:52;;;;;;;;;;;10.70;70.30;;;;;;5090607;27;82985;-42
2021/12/13 17:37:23;;;;;;;;;;;10.30;70.80;;;;;;5090817;27;80578;-39
2021/12/13 17:39:54;;;;;;;;;;;9.90;72.00;;;;;;5090840;27;81312;-42
2021/12/13 17:42:19;;;;;;;;;;;9.70;72.60;;;;;;5090619;27;82936;-41
2021/12/13 17:45:05;;;;;;;;;;;9.30;73.20;;;;;;5090829;27;80317;-41
2021/12/13 17:47:30;;;;;;;;;;;9.00;73.80;;;;;;5090492;27;82251;-43
2021/12/13 17:49:56;;;;;;;;;;;8.80;74.60;;;;;;5092866;27;82934;-42
2021/12/13 17:52:22;;;;;;;;;;;8.70;74.90;;;;;;5090862;27;80338;-43
2021/12/13 17:54:48;;;;;;;;;;;8.50;74.90;;;;;;5089371;27;82906;-40
2021/12/13 17:57:13;;;;;;;;;;;8.30;75.60;;;;;;5088958;27;80224;-41
2021/12/13 17:59:39;;;;;;;;;;;8.10;75.50;;;;;;5089701;27;81396;-40
2021/12/13 18:02:06;;;;;;;;;;;8.00;75.90;;;;;;5089737;27;82779;-42
2021/12/13 18:04:44;;;;;;;;;;;7.80;76.40;;;;;;5089696;27;81058;-42
2021/12/13 18:07:10;;;;;;;;;;;7.70;76.40;;;;;;5089870;27;82263;-41
2021/12/13 18:09:44;;;;;;;;;;;7.60;76.80;;;;;;5090418;27;81368;-41
2021/12/13 18:12:16;;;;;;;;;;;7.60;76.90;;;;;;5092970;27;80099;-39
2021/12/13 18:14:41;;;;;;;;;;;7.40;77.30;;;;;;5090265;27;82561;-40
2021/12/13 18:17:19;;;;;;;;;;;7.40;77.30;;;;;;5089988;27;80436;-41
2021/12/13 18:19:48;;;;;;;;;;;7.30;77.30;;;;;;5090163;27;81522;-41
2021/12/13 18:22:31;;;;;;;;;;;7.20;77.20;;;;;;5088995;27;83525;-42
2021/12/13 18:24:58;;;;;;;;;;;7.10;77.50;;;;;;5090237;27;80374;-41
2021/12/13 18:27:34;;;;;;;;;;;7.00;77.60;;;;;;5090002;27;82053;-41
2021/12/13 18:30:11;;;;;;;;;;;6.90;77.70;;;;;;5089927;27;82804;-40
2021/12/13 18:32:38;;;;;;;;;;;6.90;77.60;;;;;;5092904;27;80213;-39
2021/12/13 18:35:17;;;;;;;;;;;6.80;77.80;;;;;;5089977;27;81604;-42
2021/12/13 18:37:42;;;;;;;;;;;6.70;78.00;;;;;;5089887;27;80388;-41
2021/12/13 18:40:18;;;;;;;;;;;6.70;78.30;;;;;;5089572;27;82262;-39
2021/12/13 18:42:58;;;;;;;;;;;6.60;78.10;;;;;;5089912;27;82003;-39
2021/12/13 18:45:26;;;;;;;;;;;6.60;77.90;;;;;;5089895;27;80224;-40
2021/12/13 18:47:53;;;;;;;;;;;6.50;78.20;;;;;;5089891;27;82165;-40
2021/12/13 18:50:20;;;;;;;;;;;6.40;78.50;;;;;;5089559;27;82935;-41
2021/12/13 18:52:48;;;;;;;;;;;6.40;78.80;;;;;;5089642;27;80358;-41
2021/12/13 18:55:19;;;;;;;;;;;6.30;78.90;;;;;;5092149;27;82248;-39
2021/12/13 18:58:00;;;;;;;;;;;6.30;78.80;;;;;;5089634;27;80200;-41
2021/12/13 19:00:40;;;;;;;;;;;6.20;79.00;;;;;;5089715;27;82417;-41
2021/12/13 19:03:06;;;;;;;;;;;6.10;79.00;;;;;;5089266;27;82725;-42
2021/12/13 19:05:31;;;;;;;;;;;6.10;78.90;;;;;;5089600;27;80387;-40
2021/12/13 19:08:02;;;;;;;;;;;6.00;79.20;;;;;;5089598;27;82477;-40
2021/12/13 19:10:36;;;;;;;;;;;6.00;79.20;;;;;;5089410;27;82835;-41
2021/12/13 19:13:03;;;;;;;;;;;6.00;79.20;;;;;;5089392;27;80348;-40
2021/12/13 19:15:30;;;;;;;;;;;5.90;79.30;;;;;;5089367;27;80479;-41
2021/12/13 19:17:58;;;;;;;;;;;5.90;79.30;;;;;;5092174;27;82085;-39
2021/12/13 19:20:32;;;;;;;;;;;5.80;79.30;;;;;;5070982;27;83354;-42
2021/12/13 19:23:00;;;;;;;;;;;5.80;79.80;;;;;;5089426;27;82940;-40
2021/12/13 19:25:26;;;;;;;;;;;5.70;79.80;;;;;;5089141;27;80348;-42
2021/12/13 19:27:53;;;;;;;;;;;5.70;79.70;;;;;;5089486;27;80632;-40
2021/12/13 19:30:24;;;;;;;;;;;5.70;79.60;;;;;;5088859;27;82829;-40
2021/12/13 19:32:55;;;;;;;;;;;5.60;79.50;;;;;;5089078;27;80108;-40
2021/12/13 19:35:23;;;;;;;;;;;5.70;79.50;;;;;;5089125;27;81897;-41
2021/12/13 19:37:51;;;;;;;;;;;5.60;79.70;;;;;;5088818;27;82546;-41
2021/12/13 19:40:22;;;;;;;;;;;5.50;79.50;;;;;;5091801;27;80313;-40
2021/12/13 19:42:49;;;;;;;;;;;5.50;79.30;;;;;;5088659;27;82980;-41
2021/12/13 19:45:47;;;;;;;;;;;5.50;79.50;;;;;;5089133;27;80233;-41
2021/12/13 19:48:15;;;;;;;;;;;5.40;79.60;;;;;;5031775;27;82203;-41
2021/12/13 19:50:45;;;;;;;;;;;5.40;79.90;;;;;;5088824;27;83061;-39
2021/12/13 19:53:20;;;;;;;;;;;5.40;79.60;;;;;;5088625;27;80340;-41
2021/12/13 19:55:54;;;;;;;;;;;5.30;79.80;;;;;;5088987;27;82508;-40
2021/12/13 19:58:26;;;;;;;;;;;5.30;80.40;;;;;;5087842;27;82733;-42
2021/12/13 20:01:10;;;;;;;;;;;5.20;79.80;;;;;;5089010;27;80273;-41
2021/12/13 20:03:38;;;;;;;;;;;5.20;80.00;;;;;;5091167;27;82196;-40
2021/12/13 20:06:08;;;;;;;;;;;5.20;79.90;;;;;;5088680;27;80001;-41
2021/12/13 20:08:37;;;;;;;;;;;5.20;80.20;;;;;;5088856;27;82731;-41
2021/12/13 20:11:03;;;;;;;;;;;5.10;80.30;;;;;;5087440;27;84523;-41
2021/12/13 20:13:31;;;;;;;;;;;5.10;80.10;;;;;;5087932;27;81342;-39
2021/12/13 20:15:56;;;;;;;;;;;5.10;80.20;;;;;;5087776;27;81771;-41
2021/12/13 20:18:27;;;;;;;;;;;5.00;80.20;;;;;;5087054;27;84535;-40
2021/12/13 20:20:55;;;;;;;;;;;5.00;80.30;;;;;;5087132;27;82726;-40
2021/12/13 20:23:30;;;;;;;;;;;4.90;80.30;;;;;;5090170;27;83924;-39
2021/12/13 20:26:00;;;;;;;;;;;4.90;80.90;;;;;;5087380;27;81826;-39
2021/12/13 20:28:39;;;;;;;;;;;4.90;80.70;;;;;;5087373;27;82309;-41
2021/12/13 20:31:24;;;;;;;;;;;4.90;80.40;;;;;;5087240;27;84359;-39
2021/12/13 20:34:07;;;;;;;;;;;4.80;80.40;;;;;;5087187;27;82087;-42
2021/12/13 20:36:41;;;;;;;;;;;4.80;80.90;;;;;;5087265;27;83893;-39
2021/12/13 20:39:10;;;;;;;;;;;4.80;80.30;;;;;;5087168;27;83481;-41
2021/12/13 20:41:38;;;;;;;;;;;4.70;80.60;;;;;;5087372;27;82046;-40
2021/12/13 20:44:16;;;;;;;;;;;4.70;80.50;;;;;;5087416;27;82632;-40
2021/12/13 20:46:44;;;;;;;;;;;4.70;80.60;;;;;;5092475;27;85381;-41
2021/12/13 20:49:21;;;;;;;;;;;4.70;80.80;;;;;;5090506;27;84701;-41
2021/12/13 20:51:46;;;;;;;;;;;4.70;80.60;;;;;;5090789;27;83075;-41
2021/12/13 20:54:13;;;;;;;;;;;4.70;80.60;;;;;;5090742;27;82019;-41
2021/12/13 20:56:42;;;;;;;;;;;4.60;80.60;;;;;;5090440;27;83933;-39
2021/12/13 20:59:27;;;;;;;;;;;4.60;80.80;;;;;;5089816;27;84385;-41
2021/12/13 21:02:05;;;;;;;;;;;4.60;80.40;;;;;;5090546;27;82008;-41
2021/12/13 21:04:30;;;;;;;;;;;4.60;80.40;;;;;;5090987;27;84864;-39
2021/12/13 21:07:01;;;;;;;;;;;4.50;80.50;;;;;;5090251;27;84583;-40
2021/12/13 21:09:30;;;;;;;;;;;4.50;80.90;;;;;;5093140;27;82001;-41
2021/12/13 21:12:17;;;;;;;;;;;4.50;81.30;;;;;;5089445;27;85800;-40
2021/12/13 21:14:45;;;;;;;;;;;4.50;81.10;;;;;;5089928;27;82172;-40
2021/12/13 21:17:13;;;;;;;;;;;4.40;81.30;;;;;;5090161;27;83832;-39
2021/12/13 21:19:41;;;;;;;;;;;4.40;81.20;;;;;;5089857;27;84051;-40
2021/12/13 21:22:16;;;;;;;;;;;4.40;81.30;;;;;;5090077;27;81990;-40
2021/12/13 21:24:48;;;;;;;;;;;4.40;81.30;;;;;;5090135;27;83124;-41
2021/12/13 21:27:19;;;;;;;;;;;4.30;81.10;;;;;;5089793;27;83499;-41
2021/12/13 21:29:47;;;;;;;;;;;4.30;81.30;;;;;;5090585;27;81269;-41
2021/12/13 21:32:15;;;;;;;;;;;4.30;81.40;;;;;;5092553;27;85298;-39
2021/12/13 21:35:14;;;;;;;;;;;4.30;81.50;;;;;;5089844;27;82102;-40
2021/12/13 21:40:29;;;;;;;;;;;4.20;81.20;;;;;;5090035;27;82100;-40
2021/12/13 21:42:56;;;;;;;;;;;4.20;81.60;;;;;;5089917;27;81935;-40
2021/12/13 21:45:25;;;;;;;;;;;4.20;81.70;;;;;;5089805;27;83997;-39
2021/12/13 21:47:50;;;;;;;;;;;4.20;81.60;;;;;;5089471;27;84351;-40
2021/12/13 21:50:22;;;;;;;;;;;4.20;81.60;;;;;;5089269;27;82006;-41
2021/12/13 21:52:57;;;;;;;;;;;4.10;81.20;;;;;;5089656;27;84164;-39
2021/12/13 21:55:25;;;;;;;;;;;4.10;81.30;;;;;;5092389;27;83615;-40
2021/12/13 21:57:51;;;;;;;;;;;4.10;81.20;;;;;;5088953;27;85239;-41
2021/12/13 22:00:16;;;;;;;;;;;4.10;81.40;;;;;;5089782;27;81808;-39
2021/12/13 22:02:42;;;;;;;;;;;4.10;81.30;;;;;;5088719;27;83068;-41
2021/12/13 22:05:37;;;;;;;;;;;4.10;81.20;;;;;;5089401;27;85064;-40
2021/12/13 22:08:09;;;;;;;;;;;4.00;81.30;;;;;;5048393;27;86304;-41
2021/12/13 22:10:40;;;;;;;;;;;4.00;81.30;;;;;;5089284;27;82085;-41
2021/12/13 22:13:16;;;;;;;;;;;4.00;81.20;;;;;;5089383;27;84216;-41
2021/12/13 22:15:47;;;;;;;;;;;4.00;81.20;;;;;;5089287;27;84739;-40
2021/12/13 22:18:21;;;;;;;;;;;4.00;81.10;;;;;;5092092;27;81958;-39
2021/12/13 22:21:13;;;;;;;;;;;3.90;81.40;;;;;;5089854;27;81443;-39
2021/12/13 22:23:44;;;;;;;;;;;3.90;81.40;;;;;;5083414;27;82067;-39
2021/12/13 22:26:11;;;;;;;;;;;4.00;81.60;;;;;;5089321;27;82363;-39
2021/12/13 22:28:39;;;;;;;;;;;3.90;81.70;;;;;;5088349;27;85351;-39
2021/12/13 22:31:09;;;;;;;;;;;3.90;81.80;;;;;;5089075;27;82131;-40
2021/12/13 22:33:35;;;;;;;;;;;3.90;82.00;;;;;;5088893;27;84341;-38
2021/12/13 22:36:03;;;;;;;;;;;3.90;81.70;;;;;;5089118;27;83126;-41
2021/12/13 22:38:32;;;;;;;;;;;3.80;81.80;;;;;;5091613;27;81888;-40
2021/12/13 22:41:00;;;;;;;;;;;3.80;81.90;;;;;;5088769;27;82870;-40
2021/12/13 22:43:28;;;;;;;;;;;3.80;81.90;;;;;;5088851;27;82178;-39
2021/12/13 22:46:05;;;;;;;;;;;3.80;81.80;;;;;;5089176;27;84010;-41
2021/12/13 22:48:32;;;;;;;;;;;3.70;82.00;;;;;;5088462;27;84724;-39
2021/12/13 22:51:00;;;;;;;;;;;3.80;82.10;;;;;;5088481;27;82007;-40
2021/12/13 22:53:26;;;;;;;;;;;3.70;82.10;;;;;;5088066;27;82758;-39
2021/12/13 22:55:53;;;;;;;;;;;3.70;82.10;;;;;;5088649;27;82964;-39
2021/12/13 22:58:22;;;;;;;;;;;3.70;82.20;;;;;;5087844;27;82087;-41
2021/12/13 23:01:06;;;;;;;;;;;3.60;82.40;;;;;;5091004;27;82926;-39
2021/12/13 23:03:33;;;;;;;;;;;3.60;82.30;;;;;;5088163;27;82134;-40
2021/12/13 23:06:02;;;;;;;;;;;3.60;82.50;;;;;;5088443;27;84066;-41
2021/12/13 23:08:29;;;;;;;;;;;3.60;82.20;;;;;;5087569;27;84345;-41
2021/12/13 23:11:18;;;;;;;;;;;3.60;82.10;;;;;;5088747;27;80993;-41
2021/12/13 23:13:48;;;;;;;;;;;3.60;82.20;;;;;;5088211;27;81828;-41
2021/12/13 23:16:17;;;;;;;;;;;3.60;82.00;;;;;;5088487;27;84643;-39
2021/12/13 23:18:46;;;;;;;;;;;3.60;82.00;;;;;;5087491;27;82772;-39
2021/12/13 23:21:13;;;;;;;;;;;3.60;82.10;;;;;;5088193;27;85108;-40
2021/12/13 23:23:39;;;;;;;;;;;3.60;82.00;;;;;;5090895;27;85349;-41
2021/12/13 23:26:05;;;;;;;;;;;3.60;81.80;;;;;;5088271;27;83892;-39
2021/12/13 23:28:33;;;;;;;;;;;3.60;81.80;;;;;;5087536;27;84650;-40
2021/12/13 23:31:01;;;;;;;;;;;3.60;81.90;;;;;;5087931;27;81853;-41
2021/12/13 23:33:29;;;;;;;;;;;3.60;81.80;;;;;;5088015;27;83981;-41
2021/12/13 23:46:58;;;;;;;;;;;3.40;82.20;;;;;;5090038;27;81796;-41
2021/12/13 23:49:28;;;;;;;;;;;3.40;82.70;;;;;;5087305;27;84474;-40
2021/12/13 23:51:55;;;;;;;;;;;3.30;82.70;;;;;;5087794;27;81757;-39
2021/12/13 23:54:21;;;;;;;;;;;3.30;82.50;;;;;;5087873;27;84320;-41
2021/12/13 23:56:47;;;;;;;;;;;3.30;82.20;;;;;;5087606;27;84283;-39
2021/12/13 23:59:12;;;;;;;;;;;3.30;83.10;;;;;;5087122;27;82127;-40
